Time;durP1;ratioP1;P1;durP2;ratioP2;P2;SDS_P1;SDS_P2;PMS_P1;PMS_P2;Temp;Humidity;BMP_temperature;BMP_pressure;BME280_temperature;BME280_humidity;BME280_pressure;Samples;Min_cycle;Max_cycle;Signal;HPM_P1;HPM_P2
2024/02/10 00:01:18;;;;;;;18.60;12.90;;;;;;;0.99;86.11;99402.50;109200;1254;59798;-67
2024/02/10 00:03:45;;;;;;;20.10;13.40;;;;;;;0.99;86.17;99407.91;109080;1258;138753;-67
2024/02/10 00:06:15;;;;;;;17.20;13.70;;;;;;;1.01;85.99;99411.61;109236;1254;75502;-67
2024/02/10 00:08:43;;;;;;;18.80;13.20;;;;;;;1.02;86.00;99408.17;108865;1256;138852;-67
2024/02/10 00:11:11;;;;;;;18.20;13.00;;;;;;;1.05;86.19;99407.60;109096;1256;72697;-67
2024/02/10 00:13:39;;;;;;;18.80;13.10;;;;;;;1.05;85.90;99403.64;109014;1255;138880;-67
2024/02/10 00:16:06;;;;;;;17.90;12.80;;;;;;;1.06;85.90;99403.70;109200;1254;59795;-59
2024/02/10 00:18:34;;;;;;;17.30;12.60;;;;;;;1.06;85.93;99405.27;105955;1254;74145;-68
2024/02/10 00:21:02;;;;;;;16.20;12.80;;;;;;;1.08;86.17;99407.73;109084;1254;138967;-67
2024/02/10 00:23:29;;;;;;;14.70;12.20;;;;;;;1.09;86.03;99406.56;109143;1254;73861;-68
2024/02/10 00:25:56;;;;;;;16.80;12.20;;;;;;;1.10;85.85;99406.27;109047;1254;138742;-68
2024/02/10 00:28:24;;;;;;;17.60;13.00;;;;;;;1.12;86.08;99405.49;109158;1254;60141;-61
2024/02/10 00:30:54;;;;;;;18.60;12.30;;;;;;;1.15;85.99;99408.02;109200;1254;74241;-60
2024/02/10 00:33:21;;;;;;;17.90;12.50;;;;;;;1.19;86.07;99409.05;109116;1254;139134;-60
2024/02/10 00:35:48;;;;;;;19.60;12.90;;;;;;;1.23;86.18;99411.98;109071;1254;72140;-60
2024/02/10 00:38:19;;;;;;;18.80;13.60;;;;;;;1.22;86.07;99402.60;104935;1259;138782;-60
2024/02/10 00:40:46;;;;;;;18.00;13.00;;;;;;;1.19;85.99;99397.48;105010;1254;62165;-60
2024/02/10 00:43:12;;;;;;;17.20;12.20;;;;;;;1.18;85.85;99396.22;105062;1254;73740;-68
2024/02/10 00:45:40;;;;;;;19.50;13.00;;;;;;;1.16;85.95;99396.50;104898;1255;138806;-67
2024/02/10 00:48:07;;;;;;;15.70;12.20;;;;;;;1.17;85.97;99400.86;105818;1258;72625;-68
2024/02/10 00:50:34;;;;;;;18.10;13.90;;;;;;;1.18;86.23;99405.38;108976;1254;138713;-68
2024/02/10 00:53:02;;;;;;;20.00;13.70;;;;;;;1.18;86.23;99397.59;109144;1255;60194;-60
2024/02/10 00:55:30;;;;;;;16.80;12.40;;;;;;;1.16;85.95;99387.33;108938;1259;139682;-67
2024/02/10 00:58:02;;;;;;;18.20;12.80;;;;;;;1.15;86.04;99380.92;109169;1256;64775;-68
2024/02/10 01:00:30;;;;;;;17.30;12.80;;;;;;;1.14;86.10;99382.58;109126;1256;72523;-67
2024/02/10 01:02:57;;;;;;;16.30;11.70;;;;;;;1.14;86.18;99380.34;109044;1254;139138;-68
2024/02/10 01:05:24;;;;;;;20.10;12.80;;;;;;;1.15;86.04;99376.59;109013;1254;60179;-68
2024/02/10 01:07:51;;;;;;;17.00;12.90;;;;;;;1.14;86.05;99377.77;109083;1254;138922;-67
2024/02/10 01:10:19;;;;;;;17.60;12.30;;;;;;;1.17;86.14;99375.64;109274;1254;66095;-60
2024/02/10 01:12:46;;;;;;;19.20;13.00;;;;;;;1.21;86.23;99375.78;108985;1254;70880;-60
2024/02/10 01:15:13;;;;;;;16.70;12.50;;;;;;;1.23;86.05;99374.29;109045;1256;138733;-68
2024/02/10 01:17:41;;;;;;;17.40;13.00;;;;;;;1.22;85.95;99370.63;108976;1256;59847;-68
2024/02/10 01:20:12;;;;;;;16.40;11.90;;;;;;;1.23;85.96;99366.52;109057;1254;139032;-67
2024/02/10 01:22:41;;;;;;;17.80;13.00;;;;;;;1.22;86.04;99366.67;109003;1254;67277;-67
2024/02/10 01:25:08;;;;;;;16.50;12.20;;;;;;;1.22;86.04;99370.13;109161;1254;70370;-59
2024/02/10 01:27:35;;;;;;;16.20;11.50;;;;;;;1.26;86.16;99373.21;109087;1254;138813;-59
2024/02/10 01:30:03;;;;;;;14.90;11.40;;;;;;;1.26;86.10;99375.15;109109;1254;59906;-61
2024/02/10 01:32:30;;;;;;;14.90;11.20;;;;;;;1.27;86.07;99374.64;109073;1254;138750;-67
2024/02/10 01:34:57;;;;;;;14.40;11.10;;;;;;;1.30;86.14;99373.55;106259;1256;67283;-68
2024/02/10 01:37:24;;;;;;;16.30;10.90;;;;;;;1.31;86.13;99376.70;105082;1254;73786;-67
2024/02/10 01:39:54;;;;;;;13.00;10.90;;;;;;;1.31;86.01;99375.68;105070;1259;62155;-68
2024/02/10 01:42:37;;;;;;;14.50;11.50;;;;;;;1.31;86.12;99370.17;105043;1259;61986;-68
2024/02/10 01:45:08;;;;;;;;;;;;;;;1.28;86.00;99368.30;104923;1259;139453;-59
2024/02/10 01:47:38;;;;;;;13.90;11.10;;;;;;;1.25;85.97;99367.81;104996;1254;64669;-59
2024/02/10 01:50:05;;;;;;;17.90;11.80;;;;;;;1.24;86.10;99369.33;104987;1254;139247;-59
2024/02/10 01:52:38;;;;;;;17.50;11.10;;;;;;;1.23;86.12;99367.73;106267;1254;62168;-60
2024/02/10 01:55:06;;;;;;;14.20;11.30;;;;;;;1.21;86.10;99364.05;109137;1254;60234;-58
2024/02/10 01:57:33;;;;;;;16.30;11.20;;;;;;;1.18;86.21;99363.73;109085;1254;139124;-67
2024/02/10 02:00:01;;;;;;;14.80;11.10;;;;;;;1.16;86.15;99365.76;109247;1254;65384;-66
2024/02/10 02:02:31;;;;;;;14.90;11.30;;;;;;;1.16;86.24;99360.59;109083;1254;138602;-67
2024/02/10 02:05:02;;;;;;;16.20;11.60;;;;;;;1.19;86.23;99358.08;108958;1254;59835;-67
2024/02/10 02:07:30;;;;;;;16.00;11.60;;;;;;;1.20;86.26;99357.44;108841;1254;138758;-66
2024/02/10 02:10:00;;;;;;;14.30;11.00;;;;;;;1.24;86.39;99356.36;109102;1254;76635;-58
2024/02/10 02:12:27;;;;;;;18.60;11.80;;;;;;;1.27;86.38;99357.88;108967;1254;66575;-58
2024/02/10 02:14:57;;;;;;;16.50;11.40;;;;;;;1.29;86.36;99364.55;105808;1254;139336;-66
2024/02/10 02:17:24;;;;;;;14.20;10.70;;;;;;;1.29;86.17;99373.17;105089;1259;62059;-65
2024/02/10 02:19:51;;;;;;;14.00;10.90;;;;;;;1.29;86.15;99376.45;105031;1254;138972;-67
2024/02/10 02:22:18;;;;;;;13.90;10.90;;;;;;;1.30;86.26;99378.56;105113;1256;73831;-67
2024/02/10 02:24:46;;;;;;;15.30;11.50;;;;;;;1.28;86.32;99378.66;104984;1259;67312;-67
2024/02/10 02:27:13;;;;;;;15.80;11.40;;;;;;;1.27;86.08;99378.10;109091;1254;139318;-67
2024/02/10 02:29:40;;;;;;;16.30;11.40;;;;;;;1.29;86.29;99381.96;109196;1254;60068;-68
2024/02/10 02:32:08;;;;;;;16.70;11.50;;;;;;;1.30;86.39;99379.77;109087;1254;138929;-67
2024/02/10 02:34:35;;;;;;;14.70;11.00;;;;;;;1.29;86.24;99369.52;109210;1254;75341;-68
2024/02/10 02:37:06;;;;;;;16.10;11.50;;;;;;;1.30;86.27;99369.58;106663;1254;67453;-67
2024/02/10 02:39:33;;;;;;;17.50;12.30;;;;;;;1.31;86.23;99369.61;105034;1255;138891;-67
2024/02/10 02:42:02;;;;;;;14.90;11.40;;;;;;;1.29;86.16;99373.69;104910;1255;62369;-67
2024/02/10 02:44:29;;;;;;;17.90;12.70;;;;;;;1.30;86.31;99374.77;109086;1257;140069;-68
2024/02/10 02:47:00;;;;;;;16.60;11.60;;;;;;;1.32;86.44;99367.94;109194;1254;74579;-68
2024/02/10 02:49:26;;;;;;;15.50;11.70;;;;;;;1.33;86.34;99367.44;105748;1259;139256;-66
2024/02/10 02:51:54;;;;;;;16.20;11.80;;;;;;;1.34;86.31;99370.77;105099;1259;72715;-67
2024/02/10 02:54:21;;;;;;;16.80;11.30;;;;;;;1.35;86.30;99368.23;105090;1257;62380;-67
2024/02/10 02:56:51;;;;;;;15.70;11.80;;;;;;;1.35;86.43;99365.66;105047;1254;139171;-59
2024/02/10 02:59:19;;;;;;;15.20;11.00;;;;;;;1.38;86.51;99367.30;105184;1257;74902;-67
2024/02/10 03:01:51;;;;;;;16.10;11.60;;;;;;;1.40;86.36;99372.20;109059;1254;138735;-68
2024/02/10 03:04:18;;;;;;;16.00;11.70;;;;;;;1.37;86.35;99371.94;109182;1254;72749;-67
2024/02/10 03:06:45;;;;;;;16.80;11.00;;;;;;;1.36;86.42;99372.40;109210;1254;59756;-61
2024/02/10 03:09:12;;;;;;;16.50;12.30;;;;;;;1.37;86.26;99369.86;105608;1256;138723;-59
2024/02/10 03:11:39;;;;;;;15.00;11.10;;;;;;;1.36;86.37;99368.81;105233;1254;76678;-59
2024/02/10 03:14:06;;;;;;;17.10;12.10;;;;;;;1.36;86.33;99366.04;104881;1259;138689;-66
2024/02/10 03:16:33;;;;;;;17.20;12.20;;;;;;;1.38;86.42;99363.67;105059;1257;71435;-66
2024/02/10 03:19:05;;;;;;;20.40;13.50;;;;;;;1.40;86.40;99363.90;105081;1260;61988;-66
2024/02/10 03:21:35;;;;;;;19.80;12.70;;;;;;;1.36;86.30;99365.86;109052;1255;138784;-67
2024/02/10 03:24:05;;;;;;;17.20;12.40;;;;;;;1.36;86.44;99361.35;109111;1255;76546;-67
2024/02/10 03:26:35;;;;;;;16.00;12.20;;;;;;;1.38;86.55;99363.84;109019;1255;140152;-59
2024/02/10 03:29:02;;;;;;;16.30;12.00;;;;;;;1.40;86.59;99362.86;108951;1256;71093;-59
2024/02/10 03:31:29;;;;;;;19.20;12.40;;;;;;;1.40;86.37;99364.60;108970;1255;138933;-59
2024/02/10 03:33:56;;;;;;;21.40;12.60;;;;;;;1.40;86.39;99363.92;109201;1256;59807;-59
2024/02/10 03:36:26;;;;;;;23.30;13.20;;;;;;;1.43;86.44;99364.23;109151;1256;75191;-59
2024/02/10 03:39:03;;;;;;;18.90;12.10;;;;;;;1.45;86.42;99361.34;109030;1256;138864;-59
2024/02/10 03:41:30;;;;;;;20.70;12.70;;;;;;;1.44;86.51;99360.95;108984;1256;72144;-59
2024/02/10 03:43:56;;;;;;;18.70;13.00;;;;;;;1.43;86.52;99367.33;109032;1255;138875;-68
2024/02/10 03:46:23;;;;;;;21.80;14.20;;;;;;;1.43;86.41;99368.72;109072;1257;61055;-68
2024/02/10 03:48:52;;;;;;;19.70;13.10;;;;;;;1.43;86.40;99371.31;109148;1255;74718;-59
2024/02/10 03:51:19;;;;;;;18.40;12.60;;;;;;;1.45;86.68;99374.14;108836;1256;139342;-59
2024/02/10 03:53:46;;;;;;;17.70;12.50;;;;;;;1.48;86.62;99370.96;108993;1256;72261;-59
2024/02/10 03:56:12;;;;;;;20.00;13.40;;;;;;;1.47;86.48;99366.45;108870;1257;139341;-59
2024/02/10 03:58:41;;;;;;;21.50;14.00;;;;;;;1.47;86.56;99361.92;108985;1256;59890;-59
2024/02/10 04:01:13;;;;;;;22.20;13.50;;;;;;;1.45;86.51;99359.63;105814;1256;76062;-59
2024/02/10 04:03:42;;;;;;;17.90;13.00;;;;;;;1.45;86.48;99357.01;108865;1255;139461;-59
2024/02/10 04:06:09;;;;;;;22.30;13.40;;;;;;;1.43;86.69;99349.70;108957;1256;72095;-59
2024/02/10 04:08:36;;;;;;;19.70;13.80;;;;;;;1.44;86.78;99345.39;106200;1257;139115;-67
2024/02/10 04:11:06;;;;;;;22.90;13.80;;;;;;;1.42;86.67;99340.12;109146;1256;60168;-59
2024/02/10 04:13:33;;;;;;;26.30;14.60;;;;;;;1.41;86.78;99341.33;106832;1256;138890;-60
2024/02/10 04:16:00;;;;;;;24.60;14.00;;;;;;;1.42;86.90;99343.95;105015;1259;65476;-60
2024/02/10 04:18:28;;;;;;;22.40;14.30;;;;;;;1.40;86.65;99347.86;109112;1259;72377;-68
2024/02/10 04:20:55;;;;;;;22.90;13.90;;;;;;;1.36;86.76;99349.79;107618;1256;139132;-67
2024/02/10 04:23:31;;;;;;;24.70;14.30;;;;;;;1.36;86.91;99348.58;104903;1257;61973;-68
2024/02/10 04:25:58;;;;;;;21.80;12.70;;;;;;;1.37;87.03;99343.95;109001;1256;139093;-66
2024/02/10 04:28:25;;;;;;;23.10;13.40;;;;;;;1.36;87.04;99342.86;109124;1255;66784;-69
2024/02/10 04:30:52;;;;;;;18.10;12.10;;;;;;;1.36;87.08;99341.84;109159;1256;70803;-67
2024/02/10 04:33:22;;;;;;;20.80;13.30;;;;;;;1.38;87.03;99341.02;108458;1256;138999;-67
2024/02/10 04:35:49;;;;;;;18.10;11.40;;;;;;;1.41;87.39;99343.23;104936;1259;62642;-68
2024/02/10 04:38:16;;;;;;;19.60;12.90;;;;;;;1.41;87.07;99340.63;104820;1259;138955;-68
2024/02/10 04:40:43;;;;;;;18.70;11.60;;;;;;;1.40;87.01;99333.33;105041;1256;66090;-67
2024/02/10 04:43:11;;;;;;;21.80;13.90;;;;;;;1.41;87.27;99329.22;104945;1259;72862;-67
2024/02/10 04:45:37;;;;;;;21.70;14.20;;;;;;;1.41;87.19;99334.55;109014;1256;138774;-68
2024/02/10 04:48:07;;;;;;;19.70;12.80;;;;;;;1.39;86.99;99331.57;109095;1256;60802;-68
2024/02/10 04:50:34;;;;;;;16.70;12.70;;;;;;;1.34;87.08;99328.09;108935;1256;139173;-68
2024/02/10 04:53:05;;;;;;;17.60;11.40;;;;;;;1.33;87.11;99329.77;109120;1256;64176;-68
2024/02/10 04:55:32;;;;;;;15.90;12.10;;;;;;;1.34;87.04;99339.67;109033;1255;139220;-67
2024/02/10 04:58:01;;;;;;;16.60;11.80;;;;;;;1.35;87.18;99353.35;108975;1256;59794;-68
2024/02/10 05:00:28;;;;;;;16.00;12.30;;;;;;;1.41;87.32;99363.77;109166;1256;61603;-68
2024/02/10 05:02:55;;;;;;;17.80;11.70;;;;;;;1.46;87.27;99363.11;108988;1257;138555;-68
2024/02/10 05:05:22;;;;;;;16.40;12.30;;;;;;;1.49;87.46;99361.51;109002;1255;66296;-68
2024/02/10 05:07:54;;;;;;;16.80;11.60;;;;;;;1.52;87.15;99360.27;105440;1257;139435;-67
2024/02/10 05:10:21;;;;;;;14.00;11.20;;;;;;;1.56;87.19;99354.33;109019;1255;59907;-67
2024/02/10 05:12:48;;;;;;;17.10;12.00;;;;;;;1.59;87.16;99353.58;109019;1256;59732;-66
2024/02/10 05:15:20;;;;;;;18.30;12.90;;;;;;;1.62;87.23;99349.55;108800;1259;138673;-67
2024/02/10 05:17:50;;;;;;;15.30;10.80;;;;;;;1.65;87.38;99347.95;108996;1256;65112;-67
2024/02/10 05:20:22;;;;;;;18.40;12.10;;;;;;;1.65;87.10;99345.00;108864;1256;138831;-67
2024/02/10 05:22:50;;;;;;;18.00;11.70;;;;;;;1.63;86.98;99341.80;108990;1256;60095;-67
2024/02/10 05:25:20;;;;;;;16.30;12.00;;;;;;;1.63;86.93;99341.10;108921;1256;59760;-68
2024/02/10 05:27:47;;;;;;;15.00;11.10;;;;;;;1.62;87.09;99338.14;108900;1256;138724;-68
2024/02/10 05:30:24;;;;;;;14.90;10.60;;;;;;;1.60;86.92;99339.78;108905;1257;63892;-68
2024/02/10 05:32:51;;;;;;;15.80;11.50;;;;;;;1.58;86.95;99339.02;108879;1256;139183;-68
2024/02/10 05:35:18;;;;;;;17.70;11.60;;;;;;;1.56;86.99;99337.02;105030;1256;62156;-60
2024/02/10 05:37:53;;;;;;;20.50;12.60;;;;;;;1.55;87.02;99339.78;108695;1256;139847;-59
2024/02/10 05:40:21;;;;;;;20.30;12.80;;;;;;;1.55;87.15;99342.56;108976;1256;75494;-68
2024/02/10 05:42:50;;;;;;;20.90;13.50;;;;;;;1.53;87.12;99340.58;109006;1256;65939;-59
2024/02/10 05:45:18;;;;;;;17.30;12.30;;;;;;;1.52;87.19;99343.29;108880;1256;138997;-69
2024/02/10 05:47:45;;;;;;;18.40;12.40;;;;;;;1.49;87.13;99344.41;108673;1256;62544;-68
2024/02/10 05:50:22;;;;;;;13.60;11.10;;;;;;;1.50;87.25;99347.54;108858;1256;139084;-60
2024/02/10 05:52:49;;;;;;;15.80;11.50;;;;;;;1.52;87.31;99351.45;109003;1256;74392;-59
2024/02/10 05:55:20;;;;;;;17.50;11.20;;;;;;;1.54;87.39;99356.15;109053;1256;65196;-60
2024/02/10 05:57:47;;;;;;;18.80;12.00;;;;;;;1.51;87.33;99354.50;105467;1256;138370;-59
2024/02/10 06:00:14;;;;;;;18.20;12.40;;;;;;;1.49;87.41;99349.73;108916;1256;60235;-60
2024/02/10 06:02:47;;;;;;;13.40;10.70;;;;;;;1.48;87.61;99350.41;108907;1255;138625;-60
2024/02/10 06:05:14;;;;;;;14.70;11.40;;;;;;;1.46;87.49;99346.54;109017;1255;75356;-60
2024/02/10 06:07:42;;;;;;;13.90;10.60;;;;;;;1.45;87.45;99344.74;108846;1256;139229;-61
2024/02/10 06:10:12;;;;;;;15.10;11.40;;;;;;;1.44;87.54;99350.05;106963;1257;73474;-60
2024/02/10 06:12:46;;;;;;;18.30;11.10;;;;;;;1.43;87.65;99351.26;109035;1256;59836;-60
2024/02/10 06:15:13;;;;;;;18.00;11.90;;;;;;;1.42;87.60;99352.08;108416;1255;138733;-60
2024/02/10 06:17:40;;;;;;;16.20;11.50;;;;;;;1.44;87.73;99354.05;105066;1256;74905;-60
2024/02/10 06:20:12;;;;;;;17.40;11.00;;;;;;;1.45;87.87;99356.34;104883;1259;139809;-60
2024/02/10 06:22:40;;;;;;;13.80;10.00;;;;;;;1.46;87.79;99358.11;105100;1259;70895;-60
2024/02/10 06:25:13;;;;;;;14.90;11.20;;;;;;;1.46;87.99;99358.79;104986;1256;62281;-59
2024/02/10 06:27:47;;;;;;;15.00;11.40;;;;;;;1.46;87.92;99359.47;104776;1257;139779;-60
2024/02/10 06:30:14;;;;;;;17.10;11.70;;;;;;;1.43;87.90;99360.26;109096;1256;75841;-60
2024/02/10 06:32:41;;;;;;;20.50;11.90;;;;;;;1.43;87.99;99357.98;109049;1256;139421;-60
2024/02/10 06:35:08;;;;;;;17.80;12.30;;;;;;;1.43;87.92;99359.38;109096;1256;71295;-60
2024/02/10 06:37:39;;;;;;;16.20;12.50;;;;;;;1.42;87.99;99365.55;104853;1259;138713;-59
2024/02/10 06:40:08;;;;;;;19.10;11.90;;;;;;;1.43;88.08;99365.92;106212;1256;61976;-59
2024/02/10 06:42:36;;;;;;;16.00;12.50;;;;;;;1.45;88.14;99368.45;109079;1256;76689;-60
2024/02/10 06:45:14;;;;;;;18.60;13.50;;;;;;;1.47;88.09;99367.99;108786;1255;139240;-60
2024/02/10 06:47:44;;;;;;;18.00;13.30;;;;;;;1.50;88.22;99368.08;106539;1259;71103;-59
2024/02/10 06:50:14;;;;;;;20.40;13.90;;;;;;;1.52;88.13;99370.44;104815;1259;139055;-60
2024/02/10 06:52:41;;;;;;;20.00;12.70;;;;;;;1.53;88.19;99371.71;108951;1255;60574;-59
2024/02/10 06:55:12;;;;;;;17.10;12.30;;;;;;;1.54;88.13;99377.94;106827;1256;77248;-60
2024/02/10 06:57:41;;;;;;;19.80;12.40;;;;;;;1.56;88.13;99377.69;104745;1256;139112;-58
2024/02/10 07:00:14;;;;;;;17.90;11.70;;;;;;;1.59;88.32;99371.58;109119;1255;73959;-59
2024/02/10 07:02:43;;;;;;;17.60;11.40;;;;;;;1.61;88.21;99369.05;108965;1255;139580;-59
2024/02/10 07:05:14;;;;;;;20.30;13.30;;;;;;;1.65;88.31;99366.42;108113;1256;61242;-59
2024/02/10 07:07:46;;;;;;;22.40;13.10;;;;;;;1.66;88.17;99371.67;104864;1260;138806;-59
2024/02/10 07:10:19;;;;;;;20.30;12.40;;;;;;;1.69;88.31;99375.24;109115;1255;66019;-58
2024/02/10 07:12:48;;;;;;;21.60;13.30;;;;;;;1.75;88.18;99376.14;108322;1255;73822;-59
2024/02/10 07:15:18;;;;;;;18.40;13.00;;;;;;;1.75;88.21;99372.70;108859;1255;138639;-59
2024/02/10 07:17:47;;;;;;;22.20;13.20;;;;;;;1.77;88.05;99368.08;109211;1254;59932;-60
2024/02/10 07:20:18;;;;;;;21.10;11.90;;;;;;;1.74;87.91;99366.77;107062;1257;139750;-62
2024/02/10 07:22:55;;;;;;;19.90;12.20;;;;;;;1.75;88.14;99373.20;109093;1256;67359;-60
2024/02/10 07:25:25;;;;;;;20.30;12.80;;;;;;;1.78;88.19;99375.06;109088;1256;73052;-59
2024/02/10 07:27:52;;;;;;;19.80;13.10;;;;;;;1.83;88.36;99371.79;108613;1255;138983;-60
2024/02/10 07:30:19;;;;;;;18.70;12.50;;;;;;;1.87;88.20;99375.58;107548;1259;60779;-59
2024/02/10 07:32:49;;;;;;;20.60;12.60;;;;;;;1.91;88.24;99379.88;104771;1257;138889;-59
2024/02/10 07:35:16;;;;;;;18.20;11.00;;;;;;;1.91;88.12;99372.77;109207;1254;65717;-59
2024/02/10 07:37:44;;;;;;;17.80;12.00;;;;;;;1.94;88.18;99372.35;108852;1255;139036;-59
2024/02/10 07:40:11;;;;;;;20.80;14.60;;;;;;;1.98;88.30;99375.10;109044;1254;59972;-59
2024/02/10 07:42:38;;;;;;;21.90;13.50;;;;;;;2.00;88.06;99374.65;105996;1255;62054;-59
2024/02/10 07:45:05;;;;;;;22.70;12.80;;;;;;;2.03;88.14;99374.42;104958;1259;138547;-60
2024/02/10 07:47:33;;;;;;;19.70;12.90;;;;;;;2.03;88.07;99373.40;104996;1255;64355;-59
2024/02/10 07:50:00;;;;;;;21.40;13.80;;;;;;;2.02;88.16;99375.27;109047;1254;139800;-60
2024/02/10 07:52:31;;;;;;;20.00;14.10;;;;;;;2.04;88.23;99377.42;109183;1255;59853;-60
2024/02/10 07:54:57;;;;;;;20.80;14.30;;;;;;;2.10;88.34;99384.38;107147;1262;60057;-61
2024/02/10 07:57:25;;;;;;;23.50;14.60;;;;;;;2.16;88.35;99389.43;104653;1261;139081;-58
2024/02/10 07:59:55;;;;;;;20.70;14.40;;;;;;;2.23;88.47;99391.59;104885;1259;66059;-60
2024/02/10 08:02:25;;;;;;;26.80;16.60;;;;;;;2.28;88.47;99387.96;109068;1254;139094;-58
2024/02/10 08:04:58;;;;;;;22.40;16.00;;;;;;;2.32;88.41;99388.11;109170;1254;60008;-60
2024/02/10 08:07:29;;;;;;;26.80;14.90;;;;;;;2.43;88.55;99392.65;109186;1254;59876;-67
2024/02/10 08:09:57;;;;;;;26.30;16.80;;;;;;;2.52;88.36;99386.22;109202;1257;76464;-66
2024/02/10 08:12:24;;;;;;;25.50;16.20;;;;;;;2.56;88.18;99385.85;108988;1254;66646;-66
2024/02/10 08:14:55;;;;;;;27.80;17.10;;;;;;;2.61;88.16;99381.31;108856;1257;139048;-66
2024/02/10 08:17:24;;;;;;;21.20;14.50;;;;;;;2.65;87.97;99379.05;109184;1255;60034;-58
2024/02/10 08:19:51;;;;;;;17.90;12.90;;;;;;;2.65;87.73;99381.16;108905;1254;138877;-67
2024/02/10 08:22:19;;;;;;;19.50;12.40;;;;;;;2.67;87.62;99377.90;109227;1254;75754;-67
2024/02/10 08:24:47;;;;;;;21.10;15.00;;;;;;;2.65;87.41;99376.63;109016;1258;64478;-67
2024/02/10 08:27:15;;;;;;;21.80;14.90;;;;;;;2.65;87.49;99378.89;109093;1254;139947;-67
2024/02/10 08:29:43;;;;;;;25.40;16.30;;;;;;;2.73;87.70;99376.71;109186;1256;60127;-67
2024/02/10 08:32:16;;;;;;;26.50;18.70;;;;;;;2.82;87.75;99377.71;105104;1256;138738;-67
2024/02/10 08:34:43;;;;;;;22.30;15.50;;;;;;;2.87;87.57;99381.54;105420;1259;76493;-59
2024/02/10 08:37:12;;;;;;;24.30;15.50;;;;;;;2.92;87.50;99384.31;105106;1259;66341;-59
2024/02/10 08:39:39;;;;;;;21.60;14.70;;;;;;;3.00;87.57;99384.41;104883;1259;139135;-66
2024/02/10 08:42:09;;;;;;;41.60;23.00;;;;;;;3.10;87.57;99377.97;108940;1256;60105;-59
2024/02/10 08:44:36;;;;;;;36.40;20.40;;;;;;;3.14;87.29;99381.89;109040;1257;138893;-59
2024/02/10 08:47:05;;;;;;;25.80;17.20;;;;;;;3.16;87.21;99382.49;109034;1254;74263;-60
2024/02/10 08:49:36;;;;;;;37.80;23.20;;;;;;;3.19;87.11;99385.36;109049;1255;138931;-60
2024/02/10 08:52:04;;;;;;;30.40;18.60;;;;;;;3.26;87.16;99386.80;108092;1257;74306;-60
2024/02/10 08:54:31;;;;;;;21.50;15.00;;;;;;;3.29;87.03;99384.47;109178;1254;59731;-58
2024/02/10 08:57:00;;;;;;;23.80;14.10;;;;;;;3.27;86.76;99389.07;109092;1255;138771;-68
2024/02/10 08:59:31;;;;;;;27.40;19.20;;;;;;;3.29;86.82;99392.28;105828;1256;75273;-59
2024/02/10 09:02:01;;;;;;;30.10;20.60;;;;;;;3.27;86.62;99397.23;104991;1257;140475;-60
2024/02/10 09:04:29;;;;;;;32.40;19.50;;;;;;;3.25;86.59;99400.48;105045;1256;71981;-67
2024/02/10 09:06:56;;;;;;;30.40;19.30;;;;;;;3.20;86.44;99400.48;109197;1254;59794;-60
2024/02/10 09:09:25;;;;;;;32.00;20.80;;;;;;;3.16;86.26;99400.86;108898;1254;139203;-68
2024/02/10 09:11:51;;;;;;;36.40;21.30;;;;;;;3.16;86.40;99405.52;109027;1254;76513;-59
2024/02/10 09:14:19;;;;;;;36.10;20.50;;;;;;;3.18;86.64;99398.85;108946;1256;138813;-58
2024/02/10 09:16:46;;;;;;;35.70;24.00;;;;;;;3.18;86.46;99396.06;105019;1257;71823;-59
2024/02/10 09:19:13;;;;;;;31.10;20.80;;;;;;;3.18;86.48;99400.91;105131;1256;62156;-60
2024/02/10 09:21:41;;;;;;;27.20;19.00;;;;;;;3.21;86.43;99400.49;109059;1255;139190;-67
2024/02/10 09:24:14;;;;;;;23.20;17.20;;;;;;;3.20;86.33;99401.69;108982;1255;202220;-68
2024/02/10 09:26:41;;;;;;;35.10;20.00;;;;;;;3.19;86.34;99396.45;108930;1254;140129;-60
2024/02/10 09:29:08;;;;;;;32.60;19.70;;;;;;;3.19;86.44;99397.49;109210;1254;71903;-60
2024/02/10 09:31:34;;;;;;;30.70;17.90;;;;;;;3.20;86.33;99398.58;109061;1257;138983;-60
2024/02/10 09:34:04;;;;;;;39.00;23.00;;;;;;;3.18;86.17;99403.17;109060;1254;59847;-60
2024/02/10 09:36:32;;;;;;;193.80;119.90;;;;;;;3.15;86.27;99406.20;109008;1257;76060;-60
2024/02/10 09:38:59;;;;;;;32.70;21.50;;;;;;;3.16;86.38;99408.31;109095;1255;139739;-59
2024/02/10 09:41:25;;;;;;;40.00;22.10;;;;;;;3.18;86.23;99412.37;109030;1255;70232;-60
2024/02/10 09:43:52;;;;;;;33.70;18.60;;;;;;;3.16;86.22;99412.82;109045;1255;140002;-59
2024/02/10 09:46:19;;;;;;;38.60;19.80;;;;;;;3.18;86.20;99412.54;109034;1255;60031;-60
2024/02/10 09:48:51;;;;;;;36.80;19.00;;;;;;;3.18;86.16;99411.14;108008;1258;75266;-59
2024/02/10 09:51:18;;;;;;;29.00;19.00;;;;;;;3.14;85.90;99411.70;109044;1254;139388;-59
2024/02/10 09:53:45;;;;;;;32.10;20.40;;;;;;;3.09;85.96;99405.30;105159;1254;71514;-60
2024/02/10 09:56:16;;;;;;;28.60;18.70;;;;;;;3.07;86.05;99407.33;104891;1254;138716;-60
2024/02/10 09:58:44;;;;;;;30.80;19.30;;;;;;;3.08;86.11;99409.11;105001;1259;61997;-60
2024/02/10 10:01:13;;;;;;;26.80;18.10;;;;;;;3.12;86.16;99410.42;105060;1257;75954;-59
2024/02/10 10:03:40;;;;;;;25.70;18.20;;;;;;;3.11;86.18;99415.44;104960;1259;139091;-59
2024/02/10 10:06:09;;;;;;;27.50;18.60;;;;;;;3.14;86.33;99420.05;105028;1262;72099;-60
2024/02/10 10:08:38;;;;;;;25.40;18.70;;;;;;;3.17;86.28;99420.50;109033;1254;138770;-60
2024/02/10 10:11:06;;;;;;;27.60;19.60;;;;;;;3.22;86.29;99420.85;109007;1254;60220;-59
2024/02/10 10:13:34;;;;;;;25.90;17.40;;;;;;;3.25;86.19;99420.42;106303;1257;139004;-58
2024/02/10 10:16:05;;;;;;;24.90;17.30;;;;;;;3.26;86.08;99419.39;109154;1254;66481;-59
2024/02/10 10:18:35;;;;;;;24.70;18.40;;;;;;;3.30;86.12;99421.09;109022;1254;72079;-60
2024/02/10 10:21:05;;;;;;;26.60;18.50;;;;;;;3.33;85.84;99420.84;109042;1254;138796;-60
2024/02/10 10:23:35;;;;;;;26.00;18.20;;;;;;;3.37;86.05;99418.00;109197;1254;59885;-59
2024/02/10 10:26:02;;;;;;;29.00;19.10;;;;;;;3.42;85.87;99420.08;108917;1257;139096;-59
2024/02/10 10:28:30;;;;;;;24.20;16.60;;;;;;;3.50;85.82;99422.94;109240;1254;66496;-59
2024/02/10 10:30:57;;;;;;;26.90;16.50;;;;;;;3.57;85.74;99419.51;109172;1254;71446;-59
2024/02/10 10:33:25;;;;;;;24.90;16.50;;;;;;;3.63;85.72;99421.45;109076;1254;138890;-59
2024/02/10 10:35:52;;;;;;;25.20;16.70;;;;;;;3.75;85.76;99421.48;105491;1261;62795;-61
2024/02/10 10:38:21;;;;;;;27.30;18.80;;;;;;;3.80;85.52;99421.45;104701;1257;138529;-58
2024/02/10 10:40:49;;;;;;;23.40;17.00;;;;;;;3.86;85.55;99419.91;109181;1256;66831;-59
2024/02/10 10:43:17;;;;;;;23.20;16.00;;;;;;;3.92;85.41;99420.93;109230;1254;72372;-59
2024/02/10 10:45:44;;;;;;;21.50;15.40;;;;;;;3.94;85.21;99425.50;108898;1257;137828;-59
2024/02/10 10:48:11;;;;;;;23.90;16.40;;;;;;;3.96;85.02;99427.14;108936;1254;65924;-67
2024/02/10 10:50:37;;;;;;;20.90;15.50;;;;;;;4.00;85.09;99424.14;106743;1258;139359;-68
2024/02/10 10:53:11;;;;;;;29.40;19.90;;;;;;;4.06;84.96;99426.05;104738;1254;67115;-67
2024/02/10 10:55:49;;;;;;;22.40;16.20;;;;;;;4.08;84.88;99423.49;108830;1255;139024;-67
2024/02/10 10:58:21;;;;;;;25.50;15.70;;;;;;;4.06;84.64;99419.98;109240;1254;59800;-67
2024/02/10 11:00:50;;;;;;;25.10;17.20;;;;;;;4.02;84.64;99424.90;109195;1254;61521;-68
2024/02/10 11:03:17;;;;;;;30.60;17.60;;;;;;;4.02;84.59;99421.41;108886;1260;139710;-67
2024/02/10 11:05:47;;;;;;;26.90;18.20;;;;;;;3.98;84.31;99422.34;106049;1260;65138;-67
2024/02/10 11:08:25;;;;;;;27.30;17.80;;;;;;;3.96;84.47;99424.55;108939;1257;138998;-67
2024/02/10 11:10:59;;;;;;;25.10;17.00;;;;;;;3.95;84.36;99424.16;109167;1257;59662;-68
2024/02/10 11:13:28;;;;;;;23.40;16.70;;;;;;;3.92;84.32;99422.32;109181;1254;60382;-68
2024/02/10 11:16:04;;;;;;;22.20;15.90;;;;;;;3.90;84.36;99422.61;109111;1254;76555;-68
2024/02/10 11:18:33;;;;;;;24.10;17.40;;;;;;;3.93;84.44;99423.56;109111;1256;65148;-68
2024/02/10 11:21:26;;;;;;;25.40;18.00;;;;;;;3.92;84.31;99424.58;108983;1258;138498;-68